createdAt,value
2022-09-04T00:02:38.698Z,89.44
2022-09-04T00:06:57.679Z,89.04
2022-09-04T00:11:12.453Z,88.98
2022-09-04T00:15:20.227Z,88.89
2022-09-04T00:19:36.915Z,89.28
2022-09-04T00:23:48.379Z,89.33
2022-09-04T00:27:58.669Z,89.16
2022-09-04T00:32:00.044Z,89.62
2022-09-04T00:36:03.389Z,89.40
2022-09-04T00:40:14.575Z,89.26
2022-09-04T00:44:24.405Z,89.28
2022-09-04T00:48:53.617Z,89.47
2022-09-04T00:53:06.042Z,89.44
2022-09-04T00:57:58.777Z,89.21
2022-09-04T01:02:23.108Z,89.16
2022-09-04T01:06:53.035Z,89.52
2022-09-04T01:11:19.330Z,88.96
2022-09-04T01:15:42.195Z,89.50
2022-09-04T01:20:03.953Z,89.53
2022-09-04T01:24:39.845Z,89.44
2022-09-04T01:29:15.434Z,89.59
2022-09-04T01:33:35.090Z,89.82
2022-09-04T01:37:55.509Z,89.66
2022-09-04T01:42:08.810Z,89.56
2022-09-04T01:46:41.825Z,89.22
2022-09-04T01:50:48.807Z,89.42
2022-09-04T01:55:11.942Z,89.54
2022-09-04T01:59:30.244Z,88.80
2022-09-04T02:04:04.979Z,88.89
2022-09-04T02:08:21.986Z,88.84
2022-09-04T02:12:44.118Z,89.20
2022-09-04T02:16:56.278Z,89.45
2022-09-04T02:21:14.005Z,89.65
2022-09-04T02:25:53.049Z,89.77
2022-09-04T02:30:04.077Z,90.10
2022-09-04T02:34:11.251Z,90.13
2022-09-04T02:38:24.447Z,89.29
2022-09-04T02:42:51.238Z,89.14
2022-09-04T02:47:27.013Z,89.50
2022-09-04T02:52:15.086Z,89.55
2022-09-04T02:56:47.981Z,89.97
2022-09-04T03:00:55.735Z,90.36
2022-09-04T03:05:09.843Z,90.67
2022-09-04T03:09:22.288Z,91.06
2022-09-04T03:13:39.189Z,91.26
2022-09-04T03:17:53.424Z,91.21
2022-09-04T03:22:08.462Z,91.20
2022-09-04T03:26:27.712Z,90.94
2022-09-04T03:30:34.802Z,91.21
2022-09-04T03:34:46.374Z,91.67
2022-09-04T03:39:16.021Z,92.33
2022-09-04T03:43:30.755Z,92.60
2022-09-04T03:47:59.885Z,93.08
2022-09-04T03:52:43.197Z,93.01
2022-09-04T03:57:09.515Z,93.28
2022-09-04T04:01:21.629Z,93.00
2022-09-04T04:05:43.114Z,93.46
2022-09-04T04:09:53.496Z,94.40
2022-09-04T04:14:02.574Z,94.93
2022-09-04T04:18:20.111Z,95.11
2022-09-04T04:22:39.329Z,94.77
2022-09-04T04:26:59.229Z,94.08
2022-09-04T04:31:15.327Z,94.45
2022-09-04T04:36:03.060Z,95.36
2022-09-04T04:40:22.834Z,95.83
2022-09-04T04:44:57.038Z,96.27
2022-09-04T04:49:40.103Z,95.71
2022-09-04T04:54:04.605Z,96.01
2022-09-04T04:58:24.050Z,95.48
2022-09-04T05:02:35.685Z,95.75
2022-09-04T05:07:02.035Z,95.51
2022-09-04T05:11:22.146Z,95.76
2022-09-04T05:15:52.967Z,95.71
2022-09-04T05:20:17.361Z,95.71
2022-09-04T05:24:33.115Z,95.79
2022-09-04T05:28:53.148Z,96.38
2022-09-04T05:33:04.222Z,97.31
2022-09-04T05:37:53.337Z,97.55
2022-09-04T05:42:08.096Z,98.35
2022-09-04T05:46:18.639Z,98.52
2022-09-04T05:50:51.472Z,98.17
2022-09-04T05:54:59.110Z,98.23
2022-09-04T05:59:16.073Z,98.20
2022-09-04T06:04:02.542Z,98.05
2022-09-04T06:08:17.503Z,98.50
2022-09-04T06:12:34.820Z,98.06
2022-09-04T06:16:58.088Z,97.42
2022-09-04T06:21:08.815Z,97.23
2022-09-04T06:25:13.819Z,96.62
2022-09-04T06:29:24.406Z,96.33
2022-09-04T06:33:57.290Z,95.35
2022-09-04T06:38:26.881Z,95.19
2022-09-04T06:42:54.532Z,94.83
2022-09-04T06:46:56.164Z,94.88
2022-09-04T06:51:07.737Z,94.49
2022-09-04T06:55:19.488Z,94.55
2022-09-04T06:59:41.956Z,94.25
2022-09-04T07:03:46.437Z,93.81
2022-09-04T07:08:27.125Z,93.49
2022-09-04T07:12:55.818Z,94.08
2022-09-04T07:17:25.223Z,93.91
2022-09-04T07:21:52.556Z,93.12
2022-09-04T07:26:19.166Z,92.17
2022-09-04T07:30:22.712Z,91.34
2022-09-04T07:34:31.370Z,91.22
2022-09-04T07:38:50.674Z,90.91
2022-09-04T07:42:57.421Z,90.11
2022-09-04T07:47:13.609Z,90.75
2022-09-04T07:51:24.618Z,91.21
2022-09-04T07:55:46.638Z,90.32
2022-09-04T08:00:04.380Z,88.83
2022-09-04T08:04:51.093Z,87.58
2022-09-04T08:09:07.608Z,85.88
2022-09-04T08:13:24.899Z,82.82
2022-09-04T08:18:10.285Z,78.24
2022-09-04T08:22:17.172Z,74.87
2022-09-04T08:26:47.206Z,72.28
2022-09-04T08:31:09.163Z,70.73
2022-09-04T08:35:39.238Z,68.79
2022-09-04T08:39:59.537Z,67.51
2022-09-04T08:44:39.693Z,64.84
2022-09-04T08:49:03.649Z,64.33
2022-09-04T08:53:29.176Z,62.34
2022-09-04T08:58:08.993Z,61.54
2022-09-04T09:02:48.420Z,60.13
2022-09-04T09:07:09.317Z,59.12
2022-09-04T09:11:40.263Z,57.73
2022-09-04T09:16:09.361Z,56.85
2022-09-04T09:20:54.439Z,57.22
2022-09-04T09:25:20.897Z,55.98
2022-09-04T09:29:48.740Z,57.01
2022-09-04T09:34:18.945Z,55.55
2022-09-04T09:38:29.686Z,54.79
2022-09-04T09:42:56.293Z,54.48
2022-09-04T09:47:19.140Z,53.14
2022-09-04T09:51:42.468Z,52.13
2022-09-04T09:56:24.285Z,50.46
2022-09-04T10:00:29.433Z,50.95
2022-09-04T10:04:55.221Z,49.37
2022-09-04T10:09:09.582Z,49.40
2022-09-04T10:13:29.693Z,47.96
2022-09-04T10:17:37.593Z,47.99
2022-09-04T10:21:57.789Z,46.80
2022-09-04T10:25:59.246Z,46.82
2022-09-04T10:30:06.812Z,44.49
2022-09-04T10:34:43.507Z,41.92
2022-09-04T10:39:28.278Z,42.11
2022-09-04T10:43:54.162Z,40.32
2022-09-04T10:48:02.285Z,37.77
2022-09-04T10:52:13.830Z,38.43
2022-09-04T10:56:32.303Z,38.78
2022-09-04T11:01:04.009Z,37.65
2022-09-04T11:05:27.656Z,38.19
2022-09-04T11:09:57.513Z,38.22
2022-09-04T11:14:07.698Z,38.02
2022-09-04T11:18:27.830Z,38.87
2022-09-04T11:22:48.006Z,38.00
2022-09-04T11:26:53.520Z,37.33
2022-09-04T11:31:04.079Z,35.12
2022-09-04T11:35:33.118Z,35.36
2022-09-04T11:40:06.437Z,35.21
2022-09-04T11:44:30.485Z,32.87
2022-09-04T11:48:44.918Z,32.18
2022-09-04T11:53:11.298Z,32.91
2022-09-04T11:57:48.715Z,32.90
2022-09-04T12:02:30.002Z,30.95
2022-09-04T12:06:51.538Z,30.44
2022-09-04T12:11:14.288Z,30.71
2022-09-04T12:15:28.593Z,30.57
2022-09-04T12:19:54.612Z,31.89
2022-09-04T12:24:10.623Z,29.22
2022-09-04T12:29:03.301Z,30.31
2022-09-04T12:33:45.818Z,32.48
2022-09-04T12:37:50.000Z,31.97
2022-09-04T12:42:04.676Z,33.18
2022-09-04T12:46:37.037Z,33.69
2022-09-04T12:50:48.910Z,34.17
2022-09-04T12:54:56.274Z,34.52
2022-09-04T12:59:16.213Z,34.05
2022-09-04T13:03:30.495Z,33.15
2022-09-04T13:07:47.343Z,31.09
2022-09-04T13:12:20.505Z,33.32
2022-09-04T13:16:34.041Z,33.96
2022-09-04T13:21:05.482Z,35.64
2022-09-04T13:25:26.362Z,34.38
2022-09-04T13:29:36.535Z,34.07
2022-09-04T13:33:54.824Z,33.86
2022-09-04T13:38:07.425Z,33.89
2022-09-04T13:42:33.481Z,35.31
2022-09-04T13:46:40.107Z,35.99
2022-09-04T13:50:59.438Z,36.38
2022-09-04T13:55:18.057Z,34.29
2022-09-04T13:59:29.378Z,34.02
2022-09-04T14:03:40.162Z,33.09
2022-09-04T14:07:45.527Z,34.18
2022-09-04T14:11:47.078Z,34.88
2022-09-04T14:16:01.875Z,33.57
2022-09-04T14:20:22.591Z,34.00
2022-09-04T14:24:40.073Z,33.67
2022-09-04T14:29:02.395Z,33.19
2022-09-04T14:33:15.118Z,32.36
2022-09-04T14:37:46.399Z,32.57
2022-09-04T14:42:02.617Z,33.27
2022-09-04T14:46:38.472Z,33.28
2022-09-04T14:51:17.423Z,32.70
2022-09-04T14:55:34.822Z,31.02
2022-09-04T14:59:44.105Z,32.15
2022-09-04T15:04:14.009Z,32.07
2022-09-04T15:08:26.921Z,31.55
2022-09-04T15:12:41.948Z,31.79
2022-09-04T15:16:49.581Z,31.60
2022-09-04T15:21:05.871Z,30.99
2022-09-04T15:25:19.924Z,31.15
2022-09-04T15:29:33.503Z,30.99
2022-09-04T15:33:35.821Z,30.57
2022-09-04T15:37:37.405Z,29.79
2022-09-04T15:41:47.350Z,28.47
2022-09-04T15:45:51.812Z,28.18
2022-09-04T15:49:58.602Z,28.84
2022-09-04T15:54:27.470Z,27.70
2022-09-04T15:58:38.330Z,27.55
2022-09-04T16:02:59.895Z,28.56
2022-09-04T16:07:26.454Z,27.68
2022-09-04T16:11:41.545Z,27.86
2022-09-04T16:15:45.297Z,29.12
2022-09-04T16:19:58.508Z,27.66
2022-09-04T16:24:08.968Z,26.68
2022-09-04T16:28:25.369Z,27.00
2022-09-04T16:32:28.848Z,25.41
2022-09-04T16:37:11.629Z,27.38
2022-09-04T16:41:25.435Z,29.96
2022-09-04T16:45:39.825Z,30.60
2022-09-04T16:50:01.944Z,33.32
2022-09-04T16:54:37.639Z,35.01
2022-09-04T16:59:15.487Z,34.65
2022-09-04T17:03:25.473Z,34.60
2022-09-04T17:07:37.417Z,36.87
2022-09-04T17:11:55.648Z,37.77
2022-09-04T17:16:00.146Z,38.38
2022-09-04T17:20:11.581Z,40.34
2022-09-04T17:29:16.026Z,39.91
2022-09-04T17:29:29.592Z,40.23
2022-09-04T17:37:56.549Z,41.83
2022-09-04T17:40:48.981Z,41.78
2022-09-04T17:43:21.597Z,42.57
2022-09-04T17:47:49.519Z,43.53
2022-09-04T17:51:57.595Z,43.96
2022-09-04T17:56:37.973Z,44.92
2022-09-04T18:01:14.653Z,45.31
2022-09-04T18:05:24.398Z,46.78
2022-09-04T18:09:56.489Z,47.78
2022-09-04T18:14:17.323Z,48.00
2022-09-04T18:18:27.807Z,48.85
2022-09-04T18:22:50.594Z,49.53
2022-09-04T18:27:11.505Z,50.03
2022-09-04T18:37:11.052Z,51.16
2022-09-04T18:37:19.448Z,51.38
2022-09-04T18:46:21.306Z,51.93
2022-09-04T18:50:33.212Z,52.12
2022-09-04T18:50:37.224Z,52.41
2022-09-04T18:54:36.730Z,53.32
2022-09-04T18:58:50.047Z,55.19
2022-09-04T19:03:04.956Z,54.57
2022-09-04T19:07:23.530Z,54.75
2022-09-04T19:11:34.615Z,55.65
2022-09-04T19:16:01.338Z,56.17
2022-09-04T19:20:16.867Z,56.16
2022-09-04T19:24:37.061Z,56.50
2022-09-04T19:28:53.193Z,56.87
2022-09-04T19:33:29.796Z,57.19
2022-09-04T19:40:31.922Z,57.41
2022-09-04T19:46:05.541Z,57.80
2022-09-04T19:46:50.990Z,58.38
2022-09-04T19:53:30.914Z,58.93
2022-09-04T19:55:41.734Z,60.05
2022-09-04T19:59:47.114Z,60.32
2022-09-04T20:04:02.394Z,59.71
2022-09-04T20:08:14.592Z,60.72
2022-09-04T20:12:37.074Z,61.15
2022-09-04T20:16:59.406Z,60.85
2022-09-04T20:21:19.769Z,61.69
2022-09-04T20:25:21.210Z,62.95
2022-09-04T20:29:30.589Z,63.46
2022-09-04T20:33:35.647Z,63.81
2022-09-04T20:37:41.439Z,63.45
2022-09-04T20:41:54.873Z,64.36
2022-09-04T20:49:04.747Z,64.62
2022-09-04T20:52:56.255Z,65.09
2022-09-04T20:55:01.419Z,66.39
2022-09-04T21:03:09.287Z,66.56
2022-09-04T21:04:18.051Z,66.64
2022-09-04T21:09:05.290Z,67.03
2022-09-04T21:13:24.733Z,67.70
2022-09-04T21:17:47.950Z,68.37
2022-09-04T21:22:33.230Z,68.47
2022-09-04T21:26:58.997Z,68.18
2022-09-04T21:31:19.212Z,68.37
2022-09-04T21:35:23.703Z,69.64
2022-09-04T21:39:53.960Z,70.33
2022-09-04T21:43:58.027Z,70.33
2022-09-04T21:48:42.642Z,71.01
2022-09-04T21:53:18.522Z,71.43
2022-09-04T22:02:35.102Z,71.05
2022-09-04T22:02:51.568Z,71.60
2022-09-04T22:09:59.137Z,71.58
2022-09-04T22:13:40.666Z,71.31
2022-09-04T22:17:03.223Z,71.60
2022-09-04T22:21:07.672Z,72.22
2022-09-04T22:25:41.361Z,72.54
2022-09-04T22:30:08.612Z,72.99
2022-09-04T22:34:29.842Z,74.41
2022-09-04T22:38:43.641Z,74.90
2022-09-04T22:43:02.286Z,75.48
2022-09-04T22:47:37.654Z,75.43
2022-09-04T22:52:16.720Z,75.69
2022-09-04T22:56:57.203Z,75.99
2022-09-04T23:01:11.808Z,76.04
2022-09-04T23:05:20.649Z,75.92
2022-09-04T23:13:54.629Z,76.64
2022-09-04T23:14:31.346Z,76.14
2022-09-04T23:22:05.546Z,77.18
2022-09-04T23:26:52.826Z,77.14
2022-09-04T23:28:54.788Z,77.83
2022-09-04T23:33:34.746Z,77.49
2022-09-04T23:38:02.937Z,78.09
2022-09-04T23:42:13.562Z,78.29
2022-09-04T23:46:37.304Z,78.20
2022-09-04T23:51:16.062Z,78.49
2022-09-04T23:55:48.968Z,78.87
